createdAt,value
2023-05-15T00:00:48.117Z,0.10
2023-05-15T00:03:16.301Z,0.10
2023-05-15T00:05:44.454Z,0.10
2023-05-15T00:08:12.385Z,0.10
2023-05-15T00:10:42.905Z,0.10
2023-05-15T00:13:18.884Z,0.10
2023-05-15T00:15:48.416Z,0.10
2023-05-15T00:18:16.466Z,0.10
2023-05-15T00:20:44.354Z,0.10
2023-05-15T00:23:12.213Z,0.10
2023-05-15T00:25:40.086Z,0.00
2023-05-15T00:28:07.939Z,0.10
2023-05-15T00:30:35.826Z,0.10
2023-05-15T00:33:05.435Z,0.10
2023-05-15T00:35:33.746Z,0.10
2023-05-15T00:38:01.684Z,0.10
2023-05-15T00:40:31.947Z,0.10
2023-05-15T00:43:01.648Z,0.10
2023-05-15T00:45:31.131Z,0.10
2023-05-15T00:48:00.174Z,0.10
2023-05-15T00:50:30.263Z,0.10
2023-05-15T00:52:58.558Z,0.10
2023-05-15T00:55:28.021Z,0.10
2023-05-15T00:57:57.305Z,0.10
2023-05-15T01:00:26.761Z,0.10
2023-05-15T01:02:55.430Z,0.10
2023-05-15T01:05:23.589Z,0.10
2023-05-15T01:08:02.147Z,0.10
2023-05-15T01:10:30.516Z,0.10
2023-05-15T01:12:59.764Z,0.10
2023-05-15T01:15:27.755Z,0.10
2023-05-15T01:17:55.719Z,0.10
2023-05-15T01:20:24.444Z,0.10
2023-05-15T01:23:07.157Z,0.10
2023-05-15T01:25:58.157Z,0.10
2023-05-15T01:28:33.083Z,0.10
2023-05-15T01:31:05.446Z,0.10
2023-05-15T01:33:36.242Z,0.10
2023-05-15T01:36:14.553Z,0.10
2023-05-15T01:38:48.421Z,0.10
2023-05-15T01:41:21.077Z,0.10
2023-05-15T01:43:57.763Z,0.10
2023-05-15T01:46:30.963Z,0.10
2023-05-15T01:49:02.233Z,0.10
2023-05-15T01:51:31.389Z,0.10
2023-05-15T01:54:01.203Z,0.10
2023-05-15T01:56:29.782Z,0.10
2023-05-15T01:59:00.305Z,0.10
2023-05-15T02:01:30.846Z,0.10
2023-05-15T02:03:59.144Z,0.20
2023-05-15T02:06:27.064Z,0.10
2023-05-15T02:08:58.507Z,0.17
2023-05-15T02:11:26.372Z,0.10
2023-05-15T02:13:55.928Z,0.20
2023-05-15T02:16:25.281Z,0.10
2023-05-15T02:18:53.626Z,0.20
2023-05-15T02:21:21.895Z,0.13
2023-05-15T02:23:49.757Z,0.10
2023-05-15T02:26:31.743Z,0.10
2023-05-15T02:29:12.090Z,0.15
2023-05-15T02:31:48.517Z,0.20
2023-05-15T02:34:21.421Z,0.17
2023-05-15T02:36:53.048Z,0.20
2023-05-15T02:39:23.418Z,0.10
2023-05-15T02:41:52.337Z,0.20
2023-05-15T02:44:21.740Z,0.20
2023-05-15T02:46:51.968Z,0.10
2023-05-15T02:49:20.554Z,0.20
2023-05-15T02:51:48.407Z,0.20
2023-05-15T02:54:16.591Z,0.20
2023-05-15T02:56:44.467Z,0.10
2023-05-15T02:59:13.434Z,0.20
2023-05-15T03:01:41.634Z,0.20
2023-05-15T03:04:11.183Z,0.10
2023-05-15T03:06:39.060Z,0.20
2023-05-15T03:09:07.002Z,0.10
2023-05-15T03:11:35.016Z,0.17
2023-05-15T03:14:03.103Z,0.20
2023-05-15T03:16:31.109Z,0.20
2023-05-15T03:18:59.108Z,0.10
2023-05-15T03:21:28.340Z,0.20
2023-05-15T03:23:56.225Z,0.20
2023-05-15T03:26:24.272Z,0.20
2023-05-15T03:28:52.136Z,0.20
2023-05-15T03:31:20.075Z,0.20
2023-05-15T03:33:50.014Z,0.20
2023-05-15T03:36:18.032Z,0.20
2023-05-15T03:38:47.255Z,0.20
2023-05-15T03:41:15.172Z,0.20
2023-05-15T03:43:43.057Z,0.20
2023-05-15T03:46:11.178Z,0.20
2023-05-15T03:48:42.110Z,0.17
2023-05-15T03:51:10.038Z,0.20
2023-05-15T03:53:37.987Z,0.20
2023-05-15T03:56:07.516Z,0.10
2023-05-15T03:58:35.812Z,0.10
2023-05-15T04:01:03.736Z,0.10
2023-05-15T04:03:31.611Z,0.10
2023-05-15T04:05:59.473Z,0.10
2023-05-15T04:08:27.347Z,0.20
2023-05-15T04:10:55.258Z,0.10
2023-05-15T04:13:24.468Z,0.10
2023-05-15T04:15:52.839Z,0.10
2023-05-15T04:18:20.937Z,0.10
2023-05-15T04:20:48.791Z,0.10
2023-05-15T04:23:16.629Z,0.13
2023-05-15T04:25:46.702Z,0.10
2023-05-15T04:28:14.649Z,0.20
2023-05-15T04:30:43.815Z,0.10
2023-05-15T04:33:12.103Z,0.10
2023-05-15T04:35:40.280Z,0.10
2023-05-15T04:38:08.176Z,0.10
2023-05-15T04:40:36.088Z,0.10
2023-05-15T04:43:04.242Z,0.10
2023-05-15T04:45:32.203Z,0.10
2023-05-15T04:48:01.509Z,0.10
2023-05-15T04:50:29.603Z,0.10
2023-05-15T04:52:57.655Z,0.10
2023-05-15T04:55:25.647Z,0.10
2023-05-15T04:57:53.613Z,0.10
2023-05-15T05:00:21.494Z,0.10
2023-05-15T05:02:49.372Z,0.05
2023-05-15T05:05:18.677Z,0.10
2023-05-15T05:07:46.552Z,0.10
2023-05-15T05:10:14.648Z,0.10
2023-05-15T05:12:42.520Z,0.00
2023-05-15T05:15:11.454Z,0.10
2023-05-15T05:17:39.336Z,0.10
2023-05-15T05:20:12.686Z,0.00
2023-05-15T05:22:42.664Z,0.00
2023-05-15T05:25:11.014Z,0.08
2023-05-15T05:27:38.918Z,0.10
2023-05-15T05:30:08.706Z,0.00
2023-05-15T05:32:36.683Z,0.05
2023-05-15T05:35:05.045Z,0.00
2023-05-15T05:37:32.914Z,0.00
2023-05-15T05:40:02.113Z,0.00
2023-05-15T05:42:29.976Z,0.00
2023-05-15T05:44:57.927Z,0.00
2023-05-15T05:47:25.769Z,0.00
2023-05-15T05:49:55.056Z,0.00
2023-05-15T05:52:23.015Z,0.00
2023-05-15T05:54:53.321Z,0.00
2023-05-15T05:57:22.517Z,0.00
2023-05-15T05:59:50.766Z,0.00
2023-05-15T06:02:18.783Z,0.00
2023-05-15T06:04:47.045Z,0.00
2023-05-15T06:07:14.950Z,0.00
2023-05-15T06:09:42.816Z,0.00
2023-05-15T06:12:11.143Z,0.00
2023-05-15T06:14:40.399Z,0.00
2023-05-15T06:17:08.387Z,0.00
2023-05-15T06:19:36.456Z,0.00
2023-05-15T06:22:04.516Z,0.00
2023-05-15T06:24:32.455Z,0.00
2023-05-15T06:27:00.981Z,0.00
2023-05-15T06:29:28.822Z,0.00
2023-05-15T06:31:58.375Z,0.00
2023-05-15T06:34:26.279Z,0.00
2023-05-15T06:36:54.146Z,0.00
2023-05-15T06:39:22.013Z,0.00
2023-05-15T06:41:50.295Z,0.00
2023-05-15T06:44:19.952Z,0.00
2023-05-15T06:46:47.911Z,0.00
2023-05-15T06:49:17.316Z,0.00
2023-05-15T06:51:45.195Z,0.00
2023-05-15T06:54:13.072Z,0.00
2023-05-15T06:56:41.092Z,0.00
2023-05-15T06:59:08.934Z,0.00
2023-05-15T07:01:38.333Z,0.00
2023-05-15T07:04:06.447Z,0.00
2023-05-15T07:06:36.378Z,0.00
2023-05-15T07:09:04.579Z,0.00
2023-05-15T07:11:33.480Z,0.00
2023-05-15T07:14:01.769Z,0.00
2023-05-15T07:16:29.582Z,0.00
2023-05-15T07:18:57.723Z,0.00
2023-05-15T07:21:25.741Z,0.00
2023-05-15T07:23:55.028Z,0.00
2023-05-15T07:26:34.235Z,0.00
2023-05-15T07:29:04.629Z,0.00
2023-05-15T07:31:33.618Z,0.00
2023-05-15T07:34:01.906Z,0.00
2023-05-15T07:36:29.853Z,0.00
2023-05-15T07:38:59.504Z,0.00
2023-05-15T07:41:27.335Z,0.00
2023-05-15T07:43:55.165Z,0.00
2023-05-15T07:46:23.051Z,0.00
2023-05-15T07:48:51.194Z,0.00
2023-05-15T07:51:18.998Z,0.00
2023-05-15T07:53:47.125Z,0.00
2023-05-15T07:56:16.559Z,0.00
2023-05-15T07:58:44.431Z,0.00
2023-05-15T08:01:12.488Z,0.00
2023-05-15T08:03:40.371Z,0.00
2023-05-15T08:06:08.529Z,0.00
2023-05-15T08:08:36.389Z,0.00
2023-05-15T08:11:04.362Z,0.00
2023-05-15T08:13:33.664Z,0.00
2023-05-15T08:16:01.587Z,0.00
2023-05-15T08:18:29.631Z,0.00
2023-05-15T08:20:57.914Z,0.00
2023-05-15T08:23:25.970Z,0.00
2023-05-15T08:25:53.915Z,0.00
2023-05-15T08:28:21.949Z,0.00
2023-05-15T08:30:51.322Z,0.00
2023-05-15T08:33:19.401Z,0.00
2023-05-15T08:35:47.282Z,0.00
2023-05-15T08:38:15.166Z,0.00
2023-05-15T08:40:47.076Z,0.00
2023-05-15T08:43:17.753Z,0.00
2023-05-15T08:45:46.086Z,0.00
2023-05-15T08:48:20.455Z,0.00
2023-05-15T08:50:48.887Z,0.00
2023-05-15T08:53:17.092Z,0.00
2023-05-15T08:55:45.407Z,0.00
2023-05-15T08:58:14.479Z,0.00
2023-05-15T09:00:42.515Z,0.00
2023-05-15T09:03:15.885Z,0.00
2023-05-15T09:05:44.203Z,0.00
2023-05-15T09:08:12.725Z,0.00
2023-05-15T09:10:41.230Z,0.00
2023-05-15T09:13:10.225Z,0.00
2023-05-15T09:15:39.326Z,0.00
2023-05-15T09:18:08.843Z,0.00
2023-05-15T09:20:39.104Z,0.00
2023-05-15T09:23:22.775Z,0.00
2023-05-15T09:25:53.422Z,0.00
2023-05-15T09:28:29.597Z,0.00
2023-05-15T09:31:02.494Z,0.00
2023-05-15T09:33:33.053Z,0.00
2023-05-15T09:36:02.778Z,0.00
2023-05-15T09:38:30.969Z,0.00
2023-05-15T09:41:03.856Z,0.00
2023-05-15T09:43:35.321Z,0.00
2023-05-15T09:46:03.313Z,0.00
2023-05-15T09:48:32.384Z,0.00
2023-05-15T09:51:02.238Z,0.00
2023-05-15T09:53:30.564Z,0.00
2023-05-15T09:55:58.738Z,0.00
2023-05-15T09:58:26.809Z,0.00
2023-05-15T10:00:54.675Z,0.00
2023-05-15T10:03:22.558Z,0.00
2023-05-15T10:05:50.876Z,0.00
2023-05-15T10:08:28.092Z,0.00
2023-05-15T10:11:00.198Z,0.00
2023-05-15T10:13:28.807Z,0.00
2023-05-15T10:15:58.419Z,0.00
2023-05-15T10:18:29.068Z,0.00
2023-05-15T10:20:58.368Z,0.00
2023-05-15T10:23:28.292Z,0.00
2023-05-15T10:26:03.258Z,0.00
2023-05-15T10:28:32.451Z,0.00
2023-05-15T10:31:02.584Z,0.00
2023-05-15T10:33:31.088Z,0.00
2023-05-15T10:35:59.966Z,0.00
2023-05-15T10:38:31.550Z,0.00
2023-05-15T10:41:16.073Z,0.00
2023-05-15T10:43:45.193Z,0.00
2023-05-15T10:46:14.890Z,0.00
2023-05-15T10:48:43.346Z,0.00
2023-05-15T10:51:16.745Z,0.00
2023-05-15T10:53:46.885Z,0.00
2023-05-15T10:56:16.665Z,0.00
2023-05-15T10:58:48.786Z,0.00
2023-05-15T11:01:28.022Z,0.00
2023-05-15T11:04:13.708Z,0.00
2023-05-15T11:06:43.776Z,0.00
2023-05-15T11:09:35.417Z,0.00
2023-05-15T11:12:04.163Z,0.00
2023-05-15T11:14:32.841Z,0.00
2023-05-15T11:17:04.074Z,0.00
2023-05-15T11:19:40.654Z,0.00
2023-05-15T11:22:20.188Z,0.00
2023-05-15T11:24:55.805Z,0.00
2023-05-15T11:27:25.862Z,0.00
2023-05-15T11:30:14.753Z,0.00
2023-05-15T11:32:45.234Z,0.00
2023-05-15T11:35:15.209Z,0.00
2023-05-15T11:37:44.673Z,0.00
2023-05-15T11:40:21.301Z,0.00
2023-05-15T11:43:06.691Z,0.00
2023-05-15T11:45:37.057Z,0.00
2023-05-15T11:48:06.995Z,0.00
2023-05-15T11:50:36.288Z,0.00
2023-05-15T11:53:06.318Z,0.00
2023-05-15T11:55:38.155Z,0.00
2023-05-15T11:58:07.651Z,0.00
2023-05-15T12:00:35.546Z,0.00
2023-05-15T12:03:04.704Z,0.00
2023-05-15T12:05:32.938Z,0.00
2023-05-15T12:08:02.582Z,0.00
2023-05-15T12:10:32.086Z,0.00
2023-05-15T12:13:01.451Z,0.00
2023-05-15T12:15:29.272Z,0.00
2023-05-15T12:17:57.159Z,0.00
2023-05-15T12:20:25.275Z,0.00
2023-05-15T12:22:53.321Z,0.00
2023-05-15T12:25:21.551Z,0.00
2023-05-15T12:27:49.456Z,0.00
2023-05-15T12:30:19.203Z,0.00
2023-05-15T12:32:47.393Z,0.00
2023-05-15T12:35:15.432Z,0.00
2023-05-15T12:37:43.511Z,0.00
2023-05-15T12:40:12.410Z,0.00
2023-05-15T12:42:41.686Z,0.00
2023-05-15T12:45:18.451Z,0.00
2023-05-15T12:47:47.325Z,0.00
2023-05-15T12:50:16.924Z,0.00
2023-05-15T12:52:51.902Z,0.00
2023-05-15T12:55:23.215Z,0.00
2023-05-15T12:57:51.187Z,0.00
2023-05-15T13:00:23.385Z,0.00
2023-05-15T13:02:53.590Z,0.00
2023-05-15T13:05:24.002Z,0.00
2023-05-15T13:07:52.490Z,0.00
2023-05-15T13:10:23.604Z,0.00
2023-05-15T13:12:52.941Z,0.00
2023-05-15T13:15:27.361Z,0.00
2023-05-15T13:17:58.917Z,0.00
2023-05-15T13:20:27.910Z,0.00
2023-05-15T13:22:55.924Z,0.00
2023-05-15T13:25:23.847Z,0.00
2023-05-15T13:27:52.250Z,0.00
2023-05-15T13:30:20.407Z,0.00
2023-05-15T13:32:49.599Z,0.00
2023-05-15T13:35:17.543Z,0.00
2023-05-15T13:37:45.467Z,0.00
2023-05-15T13:40:13.971Z,0.00
2023-05-15T13:42:43.142Z,0.00
2023-05-15T13:45:12.785Z,0.00
2023-05-15T13:47:40.692Z,0.00
2023-05-15T13:50:12.860Z,0.00
2023-05-15T13:52:41.853Z,0.00
2023-05-15T13:55:11.386Z,0.00
2023-05-15T13:57:40.042Z,0.00
2023-05-15T14:00:10.841Z,0.00
2023-05-15T14:02:38.826Z,0.00
2023-05-15T14:05:07.246Z,0.00
2023-05-15T14:07:36.555Z,0.00
2023-05-15T14:10:05.241Z,0.00
2023-05-15T14:12:33.743Z,0.00
2023-05-15T14:15:01.956Z,0.00
2023-05-15T14:17:30.076Z,0.00
2023-05-15T14:19:58.273Z,0.00
2023-05-15T14:22:26.489Z,0.00
2023-05-15T14:24:55.767Z,0.00
2023-05-15T14:27:23.743Z,0.00
2023-05-15T14:29:52.000Z,0.00
2023-05-15T14:32:19.987Z,0.00
2023-05-15T14:34:47.879Z,0.00
2023-05-15T14:37:15.810Z,0.00
2023-05-15T14:39:43.781Z,0.00
2023-05-15T14:42:13.614Z,0.00
2023-05-15T14:44:41.530Z,0.00
2023-05-15T14:47:10.814Z,0.00
2023-05-15T14:49:38.757Z,0.00
2023-05-15T14:52:08.731Z,0.00
2023-05-15T14:54:37.183Z,0.00
2023-05-15T14:57:06.284Z,0.00
2023-05-15T14:59:36.224Z,0.00
2023-05-15T15:02:04.455Z,0.00
2023-05-15T15:04:34.425Z,0.00
2023-05-15T15:07:05.057Z,0.00
2023-05-15T15:09:33.176Z,0.00
2023-05-15T15:12:01.101Z,0.00
2023-05-15T15:14:29.466Z,0.00
2023-05-15T15:16:58.910Z,0.00
2023-05-15T15:19:26.905Z,0.00
2023-05-15T15:21:55.033Z,0.00
2023-05-15T15:24:22.907Z,0.00
2023-05-15T15:26:50.907Z,0.00
2023-05-15T15:29:18.834Z,0.00
2023-05-15T15:31:46.722Z,0.00
2023-05-15T15:34:16.478Z,0.00
2023-05-15T15:36:45.030Z,0.00
2023-05-15T15:39:13.265Z,0.00
2023-05-15T15:41:41.196Z,0.00
2023-05-15T15:44:09.110Z,0.00
2023-05-15T15:46:37.009Z,0.00
2023-05-15T15:49:06.783Z,0.00
2023-05-15T15:51:36.222Z,0.00
2023-05-15T15:54:04.125Z,0.00
2023-05-15T15:56:31.995Z,0.00
2023-05-15T15:58:59.863Z,0.00
2023-05-15T16:01:28.633Z,0.00
2023-05-15T16:03:56.645Z,0.00
2023-05-15T16:06:24.554Z,0.00
2023-05-15T16:08:53.695Z,0.00
2023-05-15T16:11:21.683Z,0.00
2023-05-15T16:13:49.725Z,0.00
2023-05-15T16:16:17.748Z,0.00
2023-05-15T16:18:45.755Z,0.00
2023-05-15T16:21:14.301Z,0.00
2023-05-15T16:23:42.378Z,0.00
2023-05-15T16:26:11.936Z,0.00
2023-05-15T16:28:41.915Z,0.00
2023-05-15T16:31:10.434Z,0.00
2023-05-15T16:33:38.276Z,0.00
2023-05-15T16:36:06.975Z,0.00
2023-05-15T16:38:34.777Z,0.00
2023-05-15T16:41:03.464Z,0.00
2023-05-15T16:43:32.706Z,0.00
2023-05-15T16:46:00.600Z,0.00
2023-05-15T16:48:28.808Z,0.00
2023-05-15T16:50:56.830Z,0.00
2023-05-15T16:53:24.923Z,0.00
2023-05-15T16:55:54.030Z,0.00
2023-05-15T16:58:21.950Z,0.00
2023-05-15T17:00:51.149Z,0.00
2023-05-15T17:03:19.268Z,0.00
2023-05-15T17:05:48.767Z,0.00
2023-05-15T17:08:16.703Z,0.00
2023-05-15T17:10:44.536Z,0.00
2023-05-15T17:13:12.418Z,0.00
2023-05-15T17:15:40.265Z,0.00
2023-05-15T17:18:09.502Z,0.00
2023-05-15T17:20:37.338Z,0.00
2023-05-15T17:23:05.306Z,0.00
2023-05-15T17:25:33.132Z,0.00
2023-05-15T17:28:01.011Z,0.00
2023-05-15T17:30:28.957Z,0.00
2023-05-15T17:32:56.964Z,0.00
2023-05-15T17:35:26.438Z,0.00
2023-05-15T17:37:54.502Z,0.00
2023-05-15T17:40:22.403Z,0.00
2023-05-15T17:42:50.213Z,0.00
2023-05-15T17:45:18.312Z,0.00
2023-05-15T17:47:46.198Z,0.00
2023-05-15T17:50:14.091Z,0.00
2023-05-15T17:52:43.310Z,0.00
2023-05-15T17:55:11.279Z,0.00
2023-05-15T17:57:39.122Z,0.00
2023-05-15T18:00:08.276Z,0.00
2023-05-15T18:02:45.294Z,0.00
2023-05-15T18:05:13.262Z,0.00
2023-05-15T18:07:42.293Z,0.00
2023-05-15T18:10:12.760Z,0.00
2023-05-15T18:12:41.027Z,0.00
2023-05-15T18:15:10.174Z,0.00
2023-05-15T18:17:38.139Z,0.00
2023-05-15T18:20:07.280Z,0.00
2023-05-15T18:22:35.923Z,0.00
2023-05-15T18:25:03.854Z,0.00
2023-05-15T18:27:33.041Z,0.00
2023-05-15T18:30:00.899Z,0.00
2023-05-15T18:32:28.801Z,0.00
2023-05-15T18:34:56.687Z,0.00
2023-05-15T18:37:24.554Z,0.00
2023-05-15T18:39:52.441Z,0.00
2023-05-15T18:42:20.311Z,0.08
2023-05-15T18:44:49.602Z,0.10
2023-05-15T18:47:17.614Z,0.00
2023-05-15T18:49:45.579Z,0.10
2023-05-15T18:52:13.759Z,0.00
2023-05-15T18:54:42.298Z,0.10
2023-05-15T18:57:10.226Z,0.10
2023-05-15T18:59:38.093Z,0.10
2023-05-15T19:02:09.359Z,0.10
2023-05-15T19:04:37.363Z,0.10
2023-05-15T19:07:05.352Z,0.10
2023-05-15T19:09:33.281Z,0.10
2023-05-15T19:12:02.421Z,0.10
2023-05-15T19:14:30.437Z,0.10
2023-05-15T19:16:58.475Z,0.10
2023-05-15T19:19:28.149Z,0.10
2023-05-15T19:21:56.005Z,0.10
2023-05-15T19:24:24.011Z,0.10
2023-05-15T19:26:51.861Z,0.10
2023-05-15T19:29:19.762Z,0.10
2023-05-15T19:31:47.730Z,0.10
2023-05-15T19:34:15.580Z,0.10
2023-05-15T19:36:46.526Z,0.10
2023-05-15T19:39:14.476Z,0.10
2023-05-15T19:41:42.633Z,0.10
2023-05-15T19:44:10.481Z,0.10
2023-05-15T19:46:38.919Z,0.10
2023-05-15T19:49:07.136Z,0.10
2023-05-15T19:51:35.128Z,0.10
2023-05-15T19:54:04.386Z,0.10
2023-05-15T19:56:32.205Z,0.10
2023-05-15T19:59:00.475Z,0.10
2023-05-15T20:01:28.385Z,0.10
2023-05-15T20:03:56.487Z,0.10
2023-05-15T20:06:24.505Z,0.10
2023-05-15T20:08:52.325Z,0.00
2023-05-15T20:11:22.977Z,0.10
2023-05-15T20:13:51.526Z,0.10
2023-05-15T20:16:19.442Z,0.10
2023-05-15T20:18:47.965Z,0.10
2023-05-15T20:21:16.813Z,0.10
2023-05-15T20:23:44.661Z,0.10
2023-05-15T20:26:12.519Z,0.10
2023-05-15T20:28:43.180Z,0.10
2023-05-15T20:31:12.842Z,0.10
2023-05-15T20:33:40.818Z,0.10
2023-05-15T20:36:09.299Z,0.10
2023-05-15T20:38:38.530Z,0.10
2023-05-15T20:41:06.382Z,0.10
2023-05-15T20:43:34.212Z,0.10
2023-05-15T20:46:03.488Z,0.10
2023-05-15T20:48:31.329Z,0.10
2023-05-15T20:50:59.158Z,0.08
2023-05-15T20:53:28.554Z,0.10
2023-05-15T20:55:56.420Z,0.10
2023-05-15T20:58:24.334Z,0.10
2023-05-15T21:00:52.217Z,0.10
2023-05-15T21:03:21.604Z,0.10
2023-05-15T21:05:49.890Z,0.10
2023-05-15T21:08:17.955Z,0.10
2023-05-15T21:10:50.901Z,0.10
2023-05-15T21:13:19.048Z,0.10
2023-05-15T21:15:46.885Z,0.10
2023-05-15T21:18:14.823Z,0.10
2023-05-15T21:20:44.018Z,0.10
2023-05-15T21:23:12.040Z,0.10
2023-05-15T21:25:40.207Z,0.10
2023-05-15T21:28:08.165Z,0.10
2023-05-15T21:30:35.968Z,0.10
2023-05-15T21:33:03.958Z,0.10
2023-05-15T21:35:31.995Z,0.10
2023-05-15T21:38:01.362Z,0.10
2023-05-15T21:40:29.257Z,0.10
2023-05-15T21:42:57.177Z,0.10
2023-05-15T21:45:25.001Z,0.15
2023-05-15T21:47:53.135Z,0.10
2023-05-15T21:50:21.109Z,0.10
2023-05-15T21:52:50.812Z,0.10
2023-05-15T21:55:20.760Z,0.13
2023-05-15T21:57:48.610Z,0.15
2023-05-15T22:00:17.224Z,0.10
2023-05-15T22:02:45.211Z,0.10
2023-05-15T22:05:13.398Z,0.10
2023-05-15T22:07:41.311Z,0.20
2023-05-15T22:10:13.770Z,0.10
2023-05-15T22:12:43.221Z,0.10
2023-05-15T22:15:12.636Z,0.20
2023-05-15T22:17:40.510Z,0.10
2023-05-15T22:20:11.547Z,0.15
2023-05-15T22:22:40.476Z,0.10
2023-05-15T22:25:09.113Z,0.10
2023-05-15T22:27:37.131Z,0.10
2023-05-15T22:30:07.789Z,0.20
2023-05-15T22:32:35.927Z,0.10
2023-05-15T22:35:04.415Z,0.10
2023-05-15T22:37:32.315Z,0.20
2023-05-15T22:40:00.445Z,0.10
2023-05-15T22:42:28.789Z,0.15
2023-05-15T22:44:57.711Z,0.20
2023-05-15T22:47:28.263Z,0.10
2023-05-15T22:49:56.602Z,0.10
2023-05-15T22:52:25.202Z,0.20
2023-05-15T22:54:53.115Z,0.15
2023-05-15T22:57:20.924Z,0.10
2023-05-15T22:59:49.369Z,0.10
2023-05-15T23:02:17.333Z,0.20
2023-05-15T23:04:46.772Z,0.10
2023-05-15T23:07:14.623Z,0.20
2023-05-15T23:09:42.626Z,0.10
2023-05-15T23:12:10.659Z,0.13
2023-05-15T23:14:38.461Z,0.20
2023-05-15T23:17:06.514Z,0.10
2023-05-15T23:19:34.376Z,0.10
2023-05-15T23:22:03.561Z,0.10
2023-05-15T23:24:31.400Z,0.10
2023-05-15T23:26:59.222Z,0.10
2023-05-15T23:29:26.994Z,0.10
2023-05-15T23:31:57.638Z,0.20
2023-05-15T23:34:25.601Z,0.10
2023-05-15T23:36:53.396Z,0.20
2023-05-15T23:39:22.565Z,0.10
2023-05-15T23:41:50.399Z,0.20
2023-05-15T23:44:18.324Z,0.10
2023-05-15T23:46:46.293Z,0.17
2023-05-15T23:49:14.128Z,0.15
2023-05-15T23:51:43.867Z,0.10
2023-05-15T23:54:12.179Z,0.20
2023-05-15T23:56:41.469Z,0.13
2023-05-15T23:59:09.382Z,0.10
